Time;durP1;ratioP1;P1;durP2;ratioP2;P2;SDS_P1;SDS_P2;PMS_P1;PMS_P2;Temp;Humidity;BMP_temperature;BMP_pressure;BME280_temperature;BME280_humidity;BME280_pressure;Samples;Min_cycle;Max_cycle;Signal;HPM_P1;HPM_P2
2023/01/28 00:00:51;;;;;;;6.40;5.60;;;3.60;99.90;;;;;;4916832;29;20477;-70
2023/01/28 00:03:17;;;;;;;5.30;4.80;;;3.60;99.90;;;;;;4917355;29;20040;-70
2023/01/28 00:05:43;;;;;;;6.22;5.55;;;3.60;99.90;;;;;;4873847;29;20028;-69
2023/01/28 00:08:12;;;;;;;5.57;4.95;;;3.60;99.90;;;;;;4904917;29;20047;-70
2023/01/28 00:10:38;;;;;;;4.43;4.00;;;3.60;99.90;;;;;;4865638;29;20455;-70
2023/01/28 00:13:06;;;;;;;4.22;3.63;;;3.60;99.90;;;;;;4905982;29;20068;-69
2023/01/28 00:15:32;;;;;;;5.32;4.82;;;3.70;99.90;;;;;;4907882;29;20032;-69
2023/01/28 00:17:59;;;;;;;5.10;4.07;;;3.60;99.90;;;;;;4912909;29;20392;-70
2023/01/28 00:20:25;;;;;;;5.65;4.63;;;3.70;99.90;;;;;;4890171;29;20039;-69
2023/01/28 00:22:52;;;;;;;4.23;3.83;;;3.70;99.90;;;;;;4894440;29;20048;-71
2023/01/28 00:25:18;;;;;;;3.95;3.55;;;3.70;99.90;;;;;;4904030;29;20051;-68
2023/01/28 00:27:45;;;;;;;3.97;3.57;;;3.70;99.90;;;;;;4911936;29;20032;-69
2023/01/28 00:30:11;;;;;;;4.13;3.73;;;3.70;99.90;;;;;;4889581;29;20052;-69
2023/01/28 00:32:38;;;;;;;4.80;4.33;;;3.70;99.90;;;;;;4879649;29;20046;-69
2023/01/28 00:35:04;;;;;;;4.78;4.30;;;3.70;99.90;;;;;;4894867;29;20051;-69
2023/01/28 00:37:32;;;;;;;6.05;4.85;;;3.70;99.90;;;;;;4876891;29;20460;-69
2023/01/28 00:40:00;;;;;;;5.60;4.28;;;3.70;99.90;;;;;;4910540;29;20127;-68
2023/01/28 00:42:26;;;;;;;5.15;3.97;;;3.70;99.90;;;;;;4910103;29;20043;-68
2023/01/28 00:44:55;;;;;;;5.35;4.85;;;3.70;99.90;;;;;;4892255;29;20032;-70
2023/01/28 00:47:21;;;;;;;5.30;4.80;;;3.70;99.90;;;;;;4891561;29;20380;-69
2023/01/28 00:49:48;;;;;;;6.13;5.23;;;3.70;99.90;;;;;;4898523;29;20466;-69
2023/01/28 00:52:14;;;;;;;7.10;5.72;;;3.70;99.90;;;;;;4892848;29;20020;-69
2023/01/28 00:54:40;;;;;;;8.03;6.73;;;3.70;99.90;;;;;;4894204;29;20039;-69
2023/01/28 00:57:06;;;;;;;8.57;7.20;;;3.60;99.90;;;;;;4894021;29;20043;-69
2023/01/28 00:59:33;;;;;;;8.13;7.00;;;3.60;99.90;;;;;;4913485;29;20415;-69
2023/01/28 01:02:11;;;;;;;7.32;6.38;;;3.60;99.90;;;;;;4892566;29;20040;-68
2023/01/28 01:04:38;;;;;;;7.73;6.93;;;3.60;99.90;;;;;;4903683;29;20036;-69
2023/01/28 01:07:04;;;;;;;9.20;6.63;;;3.60;99.90;;;;;;4905899;29;20035;-69
2023/01/28 01:09:31;;;;;;;8.88;7.53;;;3.60;99.90;;;;;;4904259;29;20046;-69
2023/01/28 01:11:57;;;;;;;8.02;6.47;;;3.50;99.90;;;;;;4881456;29;20459;-69
2023/01/28 01:14:23;;;;;;;6.82;6.07;;;3.60;99.90;;;;;;4912465;29;20044;-69
2023/01/28 01:16:49;;;;;;;8.82;7.43;;;3.60;99.90;;;;;;4887393;29;20050;-69
2023/01/28 01:19:18;;;;;;;6.47;5.78;;;3.50;99.90;;;;;;4909994;29;20043;-70
2023/01/28 01:21:49;;;;;;;7.10;6.17;;;3.50;99.90;;;;;;4899744;29;20029;-69
2023/01/28 01:24:15;;;;;;;6.97;6.00;;;3.50;99.90;;;;;;4890584;29;20048;-69
2023/01/28 01:26:42;;;;;;;7.43;6.33;;;3.50;99.90;;;;;;4875151;29;20051;-70
2023/01/28 01:29:08;;;;;;;6.80;6.05;;;3.50;99.90;;;;;;4895351;29;20052;-69
2023/01/28 01:31:35;;;;;;;6.67;5.93;;;3.50;99.90;;;;;;4878543;29;20039;-71
2023/01/28 01:34:01;;;;;;;5.77;4.93;;;3.50;99.90;;;;;;4913092;29;20055;-68
2023/01/28 01:36:27;;;;;;;7.07;6.13;;;3.40;99.90;;;;;;4873468;29;20971;-69
2023/01/28 01:38:54;;;;;;;5.07;4.57;;;3.40;99.90;;;;;;4889877;29;20527;-69
2023/01/28 01:41:28;;;;;;;4.50;4.10;;;3.40;99.90;;;;;;4877385;29;20040;-70
2023/01/28 01:44:00;;;;;;;5.15;4.65;;;3.40;99.90;;;;;;4891549;29;20036;-69
2023/01/28 01:46:49;;;;;;;4.75;4.15;;;3.40;99.90;;;;;;4881988;29;20393;-69
2023/01/28 01:49:23;;;;;;;6.17;4.47;;;3.40;99.90;;;;;;4892095;29;20040;-70
2023/01/28 01:52:03;;;;;;;5.22;4.50;;;3.40;99.90;;;;;;4877516;29;20054;-70
2023/01/28 01:54:31;;;;;;;4.50;4.00;;;3.40;99.90;;;;;;4893218;29;20596;-68
2023/01/28 01:56:59;;;;;;;4.30;3.67;;;3.40;99.90;;;;;;4900369;29;20035;-69
2023/01/28 01:59:30;;;;;;;4.03;3.40;;;3.40;99.90;;;;;;4879235;29;20044;-69
2023/01/28 02:02:00;;;;;;;3.30;3.00;;;3.40;99.90;;;;;;4911217;29;20054;-70
2023/01/28 02:04:33;;;;;;;4.15;3.72;;;3.40;99.90;;;;;;4881096;29;20343;-69
2023/01/28 02:07:00;;;;;;;4.28;3.88;;;3.40;99.90;;;;;;4870551;29;20046;-70
2023/01/28 02:09:29;;;;;;;4.85;4.10;;;3.40;99.90;;;;;;4880300;29;20032;-69
2023/01/28 02:12:03;;;;;;;4.23;3.40;;;3.40;99.90;;;;;;4913335;29;20035;-69
2023/01/28 02:14:32;;;;;;;4.88;4.38;;;3.40;99.90;;;;;;4914334;29;20031;-69
2023/01/28 02:17:00;;;;;;;5.30;3.87;;;3.40;99.90;;;;;;4893701;29;20043;-69
2023/01/28 02:19:36;;;;;;;4.63;4.07;;;3.40;99.90;;;;;;4893069;29;20055;-70
2023/01/28 02:22:08;;;;;;;4.13;3.72;;;3.40;99.90;;;;;;4880987;29;20046;-70
2023/01/28 02:24:41;;;;;;;4.43;3.80;;;3.40;99.90;;;;;;4892533;29;20043;-71
2023/01/28 02:27:30;;;;;;;3.70;3.35;;;3.40;99.90;;;;;;4901924;29;20032;-69
2023/01/28 02:30:21;;;;;;;5.70;5.10;;;3.40;99.90;;;;;;4913918;29;20297;-69
2023/01/28 02:32:59;;;;;;;7.50;5.50;;;3.40;99.90;;;;;;4896556;29;20044;-70
2023/01/28 02:35:51;;;;;;;6.03;5.03;;;3.40;99.90;;;;;;4867122;29;20044;-69
2023/01/28 02:38:36;;;;;;;6.97;5.37;;;3.30;99.90;;;;;;4897433;29;20040;-69
2023/01/28 02:41:09;;;;;;;7.87;5.30;;;3.30;99.90;;;;;;4915998;29;20036;-71
2023/01/28 02:43:40;;;;;;;8.73;7.33;;;3.30;99.90;;;;;;4901201;29;20043;-68
2023/01/28 02:49:16;;;;;;;8.25;6.65;;;3.30;99.90;;;;;;4905980;29;20052;-70
2023/01/28 02:53:39;;;;;;;8.10;7.00;;;3.30;99.90;;;;;;4897452;29;20057;-68
2023/01/28 02:55:42;;;;;;;6.90;5.70;;;3.30;99.90;;;;;;4885446;29;20056;-69
2023/01/28 02:58:23;;;;;;;10.30;8.57;;;3.20;99.90;;;;;;4868766;29;20052;-69
2023/01/28 03:01:31;;;;;;;10.77;8.57;;;3.20;99.90;;;;;;4898575;29;20048;-69
2023/01/28 03:04:11;;;;;;;9.98;7.85;;;3.10;99.90;;;;;;4854496;29;20064;-70
2023/01/28 03:06:43;;;;;;;12.97;9.30;;;3.10;99.90;;;;;;4904076;29;20048;-70
2023/01/28 03:09:22;;;;;;;11.13;9.05;;;3.10;99.90;;;;;;4895421;29;20039;-69
2023/01/28 03:38:22;;;;;;;10.50;8.20;;;3.00;99.90;;;;;;4911512;29;20035;-70
2023/01/28 03:40:53;;;;;;;8.05;7.13;;;3.00;99.90;;;;;;4896360;29;20040;-69
2023/01/28 03:43:20;;;;;;;9.83;8.03;;;3.10;99.90;;;;;;4916091;29;20114;-69
2023/01/28 03:45:51;;;;;;;9.07;7.07;;;3.10;99.90;;;;;;4901151;29;20598;-70
2023/01/28 03:48:19;;;;;;;9.07;7.00;;;3.10;99.90;;;;;;4907705;29;20055;-69
2023/01/28 03:50:47;;;;;;;11.60;8.93;;;3.10;99.90;;;;;;4912007;29;20039;-69
2023/01/28 03:53:15;;;;;;;9.97;8.30;;;3.10;99.90;;;;;;4894591;29;20044;-69
2023/01/28 03:55:47;;;;;;;7.77;6.43;;;3.10;99.90;;;;;;4878579;29;20044;-69
2023/01/28 03:58:15;;;;;;;9.83;8.13;;;3.10;99.90;;;;;;4890389;29;20074;-69
2023/01/28 04:00:42;;;;;;;11.53;8.73;;;3.00;99.90;;;;;;4897056;29;20036;-69
2023/01/28 04:03:15;;;;;;;9.93;7.83;;;3.00;99.90;;;;;;4878247;29;20511;-70
2023/01/28 04:05:57;;;;;;;10.73;8.65;;;3.00;99.90;;;;;;4878230;29;20039;-71
2023/01/28 04:08:27;;;;;;;8.73;7.45;;;3.00;99.90;;;;;;4895712;29;20040;-69
2023/01/28 04:11:20;;;;;;;7.75;6.75;;;3.00;99.90;;;;;;4872674;29;20059;-69
2023/01/28 04:13:48;;;;;;;10.87;8.83;;;3.00;99.90;;;;;;4894608;29;20688;-69
2023/01/28 04:16:17;;;;;;;6.60;5.53;;;3.00;99.90;;;;;;4884508;29;20031;-69
2023/01/28 04:18:44;;;;;;;7.87;6.83;;;3.00;99.90;;;;;;4896207;29;20039;-69
2023/01/28 04:21:11;;;;;;;7.40;5.80;;;3.00;99.90;;;;;;4894950;29;20408;-70
2023/01/28 04:23:37;;;;;;;5.93;5.07;;;3.00;99.90;;;;;;4889606;29;20055;-69
2023/01/28 04:26:05;;;;;;;11.87;8.03;;;3.00;99.90;;;;;;4870911;29;20039;-69
2023/01/28 04:28:32;;;;;;;6.53;5.83;;;3.00;99.90;;;;;;4897325;29;20047;-70
2023/01/28 04:30:59;;;;;;;6.87;6.17;;;3.00;99.90;;;;;;4890677;29;20039;-69
2023/01/28 04:33:40;;;;;;;10.30;8.70;;;2.90;99.90;;;;;;4910998;29;20035;-68
2023/01/28 04:36:27;;;;;;;10.87;9.77;;;2.90;99.90;;;;;;4885768;29;20048;-69
2023/01/28 04:39:25;;;;;;;7.97;6.77;;;2.90;99.90;;;;;;4855938;29;20055;-69
2023/01/28 04:42:16;;;;;;;10.00;7.97;;;2.90;99.90;;;;;;4888819;29;20044;-69
2023/01/28 04:45:21;;;;;;;11.20;9.77;;;2.80;99.90;;;;;;4850144;29;20172;-69
2023/01/28 04:47:57;;;;;;;8.67;7.77;;;2.80;99.90;;;;;;4833165;29;20402;-69
2023/01/28 04:50:44;;;;;;;9.60;8.60;;;2.80;99.90;;;;;;4897161;29;20054;-69
2023/01/28 04:53:29;;;;;;;8.55;7.30;;;2.80;99.90;;;;;;4911661;29;20431;-68
2023/01/28 04:55:57;;;;;;;9.10;7.33;;;2.80;99.90;;;;;;4888274;29;20051;-69
2023/01/28 04:58:26;;;;;;;8.30;7.33;;;2.80;99.90;;;;;;4903858;29;20407;-69
2023/01/28 05:00:57;;;;;;;7.37;6.53;;;2.80;99.90;;;;;;4905687;29;20505;-68
2023/01/28 05:03:25;;;;;;;6.90;6.20;;;2.80;99.90;;;;;;4890532;29;20028;-69
2023/01/28 05:05:52;;;;;;;8.93;7.67;;;2.80;99.90;;;;;;4883651;29;20067;-69
2023/01/28 05:08:30;;;;;;;9.07;7.27;;;2.80;99.90;;;;;;4902541;29;20367;-69
2023/01/28 05:10:56;;;;;;;9.07;8.03;;;2.80;99.90;;;;;;4893718;29;20035;-68
2023/01/28 05:13:23;;;;;;;10.63;7.47;;;2.80;99.90;;;;;;4882473;29;20561;-68
2023/01/28 05:15:52;;;;;;;7.80;6.80;;;2.70;99.90;;;;;;4873481;29;20554;-69
2023/01/28 05:18:19;;;;;;;15.23;11.53;;;2.70;99.90;;;;;;4909857;29;20487;-69
2023/01/28 05:20:57;;;;;;;11.20;8.70;;;2.80;99.90;;;;;;4889738;29;20036;-70
2023/01/28 05:23:23;;;;;;;11.53;9.43;;;2.70;99.90;;;;;;4893041;29;20360;-69
2023/01/28 05:25:54;;;;;;;9.57;8.00;;;2.70;99.90;;;;;;4897543;29;20039;-70
2023/01/28 05:28:20;;;;;;;11.10;8.23;;;2.60;99.90;;;;;;4879440;29;20055;-69
2023/01/28 05:30:46;;;;;;;10.27;8.57;;;2.60;99.90;;;;;;4895192;29;20053;-69
2023/01/28 05:33:13;;;;;;;11.30;9.07;;;2.60;99.90;;;;;;4892707;29;20048;-69
2023/01/28 05:35:40;;;;;;;11.77;9.23;;;2.70;99.90;;;;;;4905791;29;20047;-70
2023/01/28 05:38:07;;;;;;;10.90;8.90;;;2.60;99.90;;;;;;4886727;29;20437;-69
2023/01/28 05:40:33;;;;;;;9.97;7.50;;;2.60;99.90;;;;;;4889004;29;20480;-69
2023/01/28 05:43:00;;;;;;;10.70;8.33;;;2.60;99.90;;;;;;4897140;29;20044;-69
2023/01/28 05:45:34;;;;;;;11.63;9.03;;;2.60;99.90;;;;;;4897535;29;20040;-69
2023/01/28 05:48:11;;;;;;;9.77;7.60;;;2.50;99.90;;;;;;4901828;29;20044;-69
2023/01/28 05:50:47;;;;;;;10.97;8.63;;;2.50;99.90;;;;;;4892948;29;20071;-70
2023/01/28 05:53:21;;;;;;;12.20;10.10;;;2.50;99.90;;;;;;4891909;29;20040;-69
2023/01/28 05:55:50;;;;;;;11.27;8.43;;;2.50;99.90;;;;;;4885038;29;20607;-69
2023/01/28 05:58:17;;;;;;;12.63;9.13;;;2.50;99.90;;;;;;4878653;29;20488;-70
2023/01/28 06:00:43;;;;;;;12.57;9.50;;;2.50;99.90;;;;;;4889005;29;20040;-68
2023/01/28 06:03:10;;;;;;;9.30;7.23;;;2.50;99.90;;;;;;4877274;29;20048;-69
2023/01/28 06:05:36;;;;;;;10.33;7.80;;;2.50;99.90;;;;;;4898077;29;20040;-68
2023/01/28 06:08:03;;;;;;;12.70;9.97;;;2.50;99.90;;;;;;4892241;29;20044;-69
2023/01/28 06:10:30;;;;;;;14.50;11.30;;;2.40;99.90;;;;;;4894478;29;20629;-68
2023/01/28 06:12:56;;;;;;;11.60;8.93;;;2.40;99.90;;;;;;4878425;29;20044;-69
2023/01/28 06:15:41;;;;;;;11.73;8.77;;;2.40;99.90;;;;;;4900394;29;20470;-69
2023/01/28 06:18:34;;;;;;;10.40;7.17;;;2.40;99.90;;;;;;4888497;29;20047;-69
2023/01/28 06:21:00;;;;;;;10.30;8.03;;;2.40;99.90;;;;;;4891493;29;20051;-69
2023/01/28 06:23:26;;;;;;;9.73;7.87;;;2.40;99.90;;;;;;4888461;29;20051;-71
2023/01/28 06:25:55;;;;;;;10.37;7.47;;;2.40;99.90;;;;;;4870926;29;20044;-69
2023/01/28 06:28:23;;;;;;;10.40;8.57;;;2.40;99.90;;;;;;4904313;29;20039;-69
2023/01/28 06:30:50;;;;;;;10.90;8.77;;;2.40;99.90;;;;;;4911974;29;20365;-69
2023/01/28 06:33:18;;;;;;;11.27;8.63;;;2.40;99.90;;;;;;4911008;29;20058;-69
2023/01/28 06:35:45;;;;;;;10.50;8.40;;;2.40;99.90;;;;;;4881172;29;20055;-69
2023/01/28 06:38:11;;;;;;;9.70;7.27;;;2.30;99.90;;;;;;4909586;29;20036;-69
2023/01/28 06:40:38;;;;;;;8.07;6.23;;;2.30;99.90;;;;;;4893993;29;20046;-69
2023/01/28 06:43:05;;;;;;;9.93;7.97;;;2.30;99.90;;;;;;4910803;29;20036;-69
2023/01/28 06:45:32;;;;;;;11.17;8.60;;;2.30;99.90;;;;;;4906296;29;20036;-71
2023/01/28 06:47:58;;;;;;;12.80;9.70;;;2.30;99.90;;;;;;4909492;29;20039;-69
2023/01/28 06:50:25;;;;;;;9.67;7.57;;;2.30;99.90;;;;;;4894319;29;20040;-69
2023/01/28 06:52:51;;;;;;;12.67;10.07;;;2.30;99.90;;;;;;4904503;29;20043;-69
2023/01/28 06:55:17;;;;;;;11.10;9.43;;;2.30;99.90;;;;;;4892703;29;20388;-69
2023/01/28 06:57:44;;;;;;;11.63;9.43;;;2.30;99.90;;;;;;4908491;29;20073;-70
2023/01/28 07:00:13;;;;;;;10.50;8.40;;;2.20;99.90;;;;;;4894807;29;20043;-69
2023/01/28 07:02:40;;;;;;;13.67;10.67;;;2.20;99.90;;;;;;4891152;29;20035;-70
2023/01/28 07:05:06;;;;;;;13.50;10.87;;;2.20;99.90;;;;;;4910860;29;21284;-69
2023/01/28 07:07:33;;;;;;;13.03;10.83;;;2.20;99.90;;;;;;4908518;29;20042;-69
2023/01/28 07:09:59;;;;;;;12.03;9.97;;;2.20;99.90;;;;;;4913678;29;20040;-70
2023/01/28 07:12:25;;;;;;;12.63;10.90;;;2.20;99.90;;;;;;4899301;29;20043;-69
2023/01/28 07:14:51;;;;;;;14.60;11.23;;;2.20;99.90;;;;;;4913225;29;20487;-69
2023/01/28 07:17:18;;;;;;;13.27;10.43;;;2.20;99.90;;;;;;4908721;29;20047;-69
2023/01/28 07:19:44;;;;;;;12.13;10.23;;;2.20;99.90;;;;;;4874544;29;20063;-70
2023/01/28 07:22:10;;;;;;;11.97;9.27;;;2.10;99.90;;;;;;4882541;29;20035;-70
2023/01/28 07:24:37;;;;;;;11.60;9.67;;;2.20;99.90;;;;;;4899726;29;20087;-69
2023/01/28 07:27:03;;;;;;;11.13;9.07;;;2.20;99.90;;;;;;4906269;29;20035;-70
2023/01/28 07:29:29;;;;;;;14.23;10.73;;;2.20;99.90;;;;;;4897832;29;20408;-69
2023/01/28 07:31:56;;;;;;;11.70;9.10;;;2.20;99.90;;;;;;4890680;29;20031;-68
2023/01/28 07:34:22;;;;;;;17.83;14.70;;;2.20;99.90;;;;;;4881546;29;20075;-70
2023/01/28 07:36:48;;;;;;;18.33;13.40;;;2.20;99.90;;;;;;4888244;29;20408;-69
2023/01/28 07:39:14;;;;;;;12.67;10.93;;;2.20;99.90;;;;;;4915889;29;20401;-68
2023/01/28 07:41:41;;;;;;;11.07;8.93;;;2.20;99.90;;;;;;4897906;29;20055;-70
2023/01/28 07:44:24;;;;;;;13.97;11.30;;;2.20;99.90;;;;;;4879919;29;20059;-69
2023/01/28 07:46:51;;;;;;;10.87;9.50;;;2.30;99.90;;;;;;4888906;29;20040;-70
2023/01/28 07:49:17;;;;;;;10.63;9.17;;;2.30;99.90;;;;;;4917694;29;20043;-70
2023/01/28 07:51:45;;;;;;;12.07;10.47;;;2.30;99.90;;;;;;4895316;29;20070;-69
2023/01/28 07:54:12;;;;;;;11.40;9.13;;;2.30;99.90;;;;;;4912470;29;20439;-70
2023/01/28 07:56:38;;;;;;;10.97;9.33;;;2.30;99.90;;;;;;4888094;29;20425;-69
2023/01/28 07:59:04;;;;;;;11.25;9.05;;;2.30;99.90;;;;;;4892869;29;20052;-69
2023/01/28 08:01:31;;;;;;;10.37;8.10;;;2.40;99.90;;;;;;4889973;29;20834;-69
2023/01/28 08:03:57;;;;;;;10.60;8.90;;;2.40;99.90;;;;;;4893090;29;20502;-70
2023/01/28 08:06:23;;;;;;;14.30;11.47;;;2.40;99.90;;;;;;4895970;29;20043;-70
2023/01/28 08:08:50;;;;;;;11.57;9.63;;;2.50;99.90;;;;;;4893855;29;20040;-69
2023/01/28 08:11:16;;;;;;;10.97;8.80;;;2.50;99.90;;;;;;4915663;29;20039;-69
2023/01/28 08:13:42;;;;;;;8.80;7.90;;;2.50;99.90;;;;;;4894512;29;20032;-70
2023/01/28 08:16:09;;;;;;;11.13;9.17;;;2.50;99.90;;;;;;4904307;29;20051;-70
2023/01/28 08:18:35;;;;;;;9.37;7.97;;;2.50;99.90;;;;;;4902996;29;20518;-71
2023/01/28 08:21:03;;;;;;;10.27;9.13;;;2.60;99.90;;;;;;4893654;29;20050;-70
2023/01/28 08:23:33;;;;;;;11.23;9.37;;;2.60;99.90;;;;;;4876223;29;20137;-70
2023/01/28 08:25:59;;;;;;;10.17;7.67;;;2.50;99.90;;;;;;4884221;29;21079;-71
2023/01/28 08:28:26;;;;;;;8.93;7.50;;;2.60;99.90;;;;;;4903283;29;20032;-69
2023/01/28 08:30:53;;;;;;;9.73;8.40;;;2.50;99.90;;;;;;4880070;29;20054;-69
2023/01/28 08:33:19;;;;;;;10.77;9.03;;;2.60;99.90;;;;;;4910964;29;20393;-69
2023/01/28 08:35:46;;;;;;;11.77;8.77;;;2.60;99.90;;;;;;4907601;29;20059;-69
2023/01/28 08:38:15;;;;;;;11.83;9.80;;;2.50;99.90;;;;;;4877284;29;20056;-70
2023/01/28 08:40:41;;;;;;;10.07;8.87;;;2.50;99.90;;;;;;4895171;29;20046;-71
2023/01/28 08:43:07;;;;;;;12.10;10.00;;;2.50;99.90;;;;;;4892842;29;20039;-72
2023/01/28 08:45:33;;;;;;;13.50;10.67;;;2.50;99.90;;;;;;4882932;29;20039;-71
2023/01/28 08:48:02;;;;;;;16.27;13.27;;;2.50;99.90;;;;;;4901904;29;20043;-72
2023/01/28 08:50:31;;;;;;;12.67;11.07;;;2.50;99.90;;;;;;4894659;29;20044;-72
2023/01/28 08:53:00;;;;;;;12.77;10.43;;;2.50;99.90;;;;;;4875151;29;20516;-70
2023/01/28 08:55:27;;;;;;;12.07;9.00;;;2.50;99.90;;;;;;4902756;29;20051;-72
2023/01/28 08:57:54;;;;;;;10.13;8.73;;;2.50;99.90;;;;;;4883796;29;20062;-71
2023/01/28 09:00:21;;;;;;;16.53;12.00;;;2.50;99.90;;;;;;4903791;29;20034;-70
2023/01/28 09:02:51;;;;;;;15.87;12.80;;;2.50;99.90;;;;;;4894487;29;20531;-71
2023/01/28 09:05:18;;;;;;;15.07;12.17;;;2.50;99.90;;;;;;4904160;29;20055;-70
2023/01/28 09:07:45;;;;;;;11.43;10.23;;;2.50;99.90;;;;;;4904526;29;20040;-69
2023/01/28 09:10:12;;;;;;;10.30;8.93;;;2.50;99.90;;;;;;4914180;29;20047;-69
2023/01/28 09:12:38;;;;;;;9.67;8.10;;;2.50;99.90;;;;;;4863347;29;20090;-71
2023/01/28 09:15:05;;;;;;;8.93;8.00;;;2.50;99.90;;;;;;4874205;29;20114;-69
2023/01/28 09:17:31;;;;;;;9.25;8.35;;;2.50;99.90;;;;;;4904145;29;20039;-69
2023/01/28 09:19:58;;;;;;;9.57;8.57;;;2.60;99.90;;;;;;4895200;29;20051;-70
2023/01/28 09:22:24;;;;;;;8.53;7.63;;;2.60;99.90;;;;;;4896474;29;20064;-69
2023/01/28 09:24:50;;;;;;;8.73;7.83;;;2.60;99.90;;;;;;4907486;29;20044;-69
2023/01/28 09:27:17;;;;;;;8.52;6.82;;;2.70;99.90;;;;;;4909792;29;20036;-70
2023/01/28 09:29:43;;;;;;;6.28;5.68;;;2.70;99.90;;;;;;4912635;29;20039;-69
2023/01/28 09:32:09;;;;;;;7.60;6.80;;;2.70;99.90;;;;;;4880065;29;20036;-70
2023/01/28 09:34:36;;;;;;;11.17;10.03;;;2.70;99.90;;;;;;4881242;29;20040;-69
2023/01/28 09:37:02;;;;;;;8.80;7.90;;;2.70;99.90;;;;;;4887160;29;20044;-70
2023/01/28 09:39:29;;;;;;;8.87;7.50;;;2.70;99.90;;;;;;4877614;29;20095;-71
2023/01/28 09:41:55;;;;;;;8.97;7.90;;;2.70;99.90;;;;;;4870743;29;20436;-70
2023/01/28 09:44:53;;;;;;;10.07;8.40;;;2.70;99.90;;;;;;4913398;29;20036;-70
2023/01/28 09:47:32;;;;;;;6.37;5.77;;;2.80;99.90;;;;;;4897521;29;20055;-70
2023/01/28 09:50:04;;;;;;;8.37;7.50;;;2.80;99.90;;;;;;4911406;29;20039;-71
2023/01/28 09:52:35;;;;;;;9.20;8.10;;;2.90;99.90;;;;;;4913868;29;20051;-70
2023/01/28 09:55:11;;;;;;;10.53;8.40;;;2.90;99.90;;;;;;4906889;29;20067;-72
2023/01/28 09:57:44;;;;;;;8.20;7.37;;;2.90;99.90;;;;;;4888965;29;20036;-69
2023/01/28 10:00:17;;;;;;;11.90;10.43;;;3.00;99.90;;;;;;4912057;29;20443;-70
2023/01/28 10:02:46;;;;;;;10.30;8.18;;;3.00;99.90;;;;;;4911736;29;20075;-69
2023/01/28 10:05:49;;;;;;;7.93;7.13;;;3.10;99.90;;;;;;4889729;29;20082;-69
2023/01/28 10:08:38;;;;;;;8.17;7.37;;;3.10;99.90;;;;;;4885076;29;20059;-69
2023/01/28 10:11:44;;;;;;;9.32;8.30;;;3.20;99.90;;;;;;4908766;29;20090;-69
2023/01/28 10:14:26;;;;;;;7.97;7.17;;;3.30;99.90;;;;;;4913332;29;20511;-69
2023/01/28 10:17:09;;;;;;;7.37;6.63;;;3.40;99.90;;;;;;4886563;29;20043;-69
2023/01/28 10:19:52;;;;;;;6.27;5.63;;;3.50;99.90;;;;;;4913248;29;20299;-69
2023/01/28 10:22:25;;;;;;;7.22;6.53;;;3.60;99.90;;;;;;4914418;29;20036;-69
2023/01/28 10:25:05;;;;;;;7.88;7.18;;;3.70;99.90;;;;;;4911764;29;20510;-70
2023/01/28 10:27:32;;;;;;;8.27;7.47;;;3.90;99.90;;;;;;4886732;29;20032;-71
2023/01/28 10:30:09;;;;;;;7.37;6.67;;;4.00;99.90;;;;;;4883428;29;20062;-70
2023/01/28 10:32:45;;;;;;;8.33;7.47;;;4.00;99.90;;;;;;4904948;29;20052;-70
2023/01/28 10:35:12;;;;;;;7.87;7.07;;;4.10;99.90;;;;;;4913873;29;20035;-71
2023/01/28 10:37:39;;;;;;;7.63;6.93;;;4.20;99.90;;;;;;4892633;29;20047;-71
2023/01/28 10:40:13;;;;;;;9.00;7.83;;;4.20;99.90;;;;;;4896913;29;20384;-71
2023/01/28 10:42:40;;;;;;;11.50;9.23;;;4.20;99.90;;;;;;4907794;29;20036;-71
2023/01/28 10:45:27;;;;;;;11.02;8.80;;;4.20;99.90;;;;;;4895150;29;20117;-71
2023/01/28 10:48:12;;;;;;;11.63;8.90;;;4.20;99.90;;;;;;4908765;29;20036;-70
2023/01/28 10:50:50;;;;;;;8.63;7.68;;;4.20;99.90;;;;;;4910792;29;20044;-70
2023/01/28 10:53:16;;;;;;;6.90;6.28;;;4.20;99.90;;;;;;4912976;29;20052;-70
2023/01/28 10:55:53;;;;;;;8.88;7.45;;;4.30;99.90;;;;;;4904425;29;20028;-71
2023/01/28 10:58:29;;;;;;;7.93;7.13;;;4.50;99.90;;;;;;4914239;29;20043;-72
2023/01/28 11:00:58;;;;;;;7.60;6.90;;;4.50;99.90;;;;;;4915111;29;20040;-71
2023/01/28 11:03:29;;;;;;;6.88;6.18;;;4.70;99.90;;;;;;4898941;29;20495;-71
2023/01/28 11:05:57;;;;;;;8.77;7.88;;;4.80;99.90;;;;;;4878529;29;20094;-71
2023/01/28 11:08:25;;;;;;;8.88;8.02;;;4.90;99.90;;;;;;4907429;29;20350;-73
2023/01/28 11:10:53;;;;;;;8.00;7.20;;;4.90;99.90;;;;;;4890851;29;20048;-71
2023/01/28 11:13:22;;;;;;;7.53;6.80;;;4.90;99.90;;;;;;4910197;29;20040;-71
2023/01/28 11:15:53;;;;;;;9.93;7.90;;;4.90;99.90;;;;;;4900878;29;20487;-72
2023/01/28 11:18:26;;;;;;;7.85;7.05;;;4.90;99.90;;;;;;4906930;29;20040;-72
2023/01/28 11:21:03;;;;;;;6.97;6.28;;;5.00;99.90;;;;;;4896988;29;20043;-71
2023/01/28 11:23:34;;;;;;;8.18;7.35;;;5.10;99.90;;;;;;4891148;29;20040;-72
2023/01/28 11:26:16;;;;;;;7.88;6.38;;;5.20;99.90;;;;;;4881752;29;20056;-73
2023/01/28 11:28:43;;;;;;;7.25;6.50;;;5.20;99.90;;;;;;4892186;29;20036;-72
2023/01/28 11:31:12;;;;;;;7.40;6.10;;;5.00;99.90;;;;;;4877900;29;20044;-72
2023/01/28 11:33:52;;;;;;;6.35;5.60;;;4.80;99.90;;;;;;4896475;29;20467;-70
2023/01/28 11:36:24;;;;;;;6.70;6.00;;;4.60;99.90;;;;;;4886119;29;21406;-71
2023/01/28 11:39:27;;;;;;;8.38;7.32;;;4.40;99.90;;;;;;4912472;29;20044;-71
2023/01/28 11:41:54;;;;;;;8.18;7.35;;;4.30;99.90;;;;;;4910456;29;20044;-73
2023/01/28 11:44:26;;;;;;;7.00;6.30;;;4.20;99.90;;;;;;4885025;29;20369;-70
2023/01/28 11:47:20;;;;;;;7.65;6.85;;;4.10;99.90;;;;;;4888149;29;20040;-71
2023/01/28 11:49:57;;;;;;;7.70;6.68;;;4.00;99.90;;;;;;4895469;29;20036;-71
2023/01/28 11:53:04;;;;;;;9.02;6.63;;;3.90;99.90;;;;;;4910961;29;20028;-71
2023/01/28 11:56:08;;;;;;;10.32;9.05;;;3.90;99.90;;;;;;4884406;29;20047;-73
2023/01/28 11:58:45;;;;;;;9.40;8.27;;;4.00;99.90;;;;;;4893043;29;20538;-71
2023/01/28 12:01:26;;;;;;;7.47;6.78;;;4.00;99.90;;;;;;4899123;29;20035;-71
2023/01/28 12:04:07;;;;;;;7.70;6.90;;;4.10;99.90;;;;;;4912976;29;20048;-71
2023/01/28 12:06:33;;;;;;;11.50;9.45;;;4.20;99.90;;;;;;4898909;29;20044;-73
2023/01/28 12:09:08;;;;;;;11.57;9.25;;;4.20;99.90;;;;;;4912460;29;20091;-71
2023/01/28 12:12:11;;;;;;;9.80;8.15;;;4.40;99.90;;;;;;4913246;29;20036;-71
2023/01/28 12:15:15;;;;;;;8.82;7.55;;;4.60;99.90;;;;;;4892943;29;20039;-70
2023/01/28 12:17:59;;;;;;;;;;;4.80;99.90;;;;;;4892665;29;20523;-71
2023/01/28 12:20:34;;;;;;;10.32;7.97;;;4.90;99.90;;;;;;4884926;29;20318;-71
2023/01/28 12:23:24;;;;;;;8.27;7.38;;;5.10;99.90;;;;;;4910389;29;20054;-71
2023/01/28 12:26:12;;;;;;;9.15;7.28;;;5.20;99.90;;;;;;4875938;29;20515;-70
2023/01/28 12:29:19;;;;;;;7.82;7.00;;;5.30;99.90;;;;;;4904882;29;20392;-71
2023/01/28 12:32:07;;;;;;;7.93;7.13;;;5.30;99.90;;;;;;4893439;29;20052;-70
2023/01/28 12:35:31;;;;;;;8.15;7.18;;;5.30;99.90;;;;;;4914349;29;20035;-71
2023/01/28 12:38:00;;;;;;;;;;;5.30;99.90;;;;;;4890708;29;20491;-72
2023/01/28 12:41:03;;;;;;;8.60;6.15;;;5.30;99.90;;;;;;4858684;29;19919;-72
2023/01/28 12:43:57;;;;;;;7.43;6.40;;;5.20;99.90;;;;;;4911358;29;20060;-70
2023/01/28 12:46:51;;;;;;;7.82;6.57;;;5.10;99.90;;;;;;4906155;29;20797;-71
2023/01/28 12:49:21;;;;;;;13.45;7.07;;;5.10;99.90;;;;;;4897384;29;20047;-71
2023/01/28 12:52:12;;;;;;;8.88;7.10;;;5.10;99.90;;;;;;4894101;29;20040;-72
2023/01/28 12:55:05;;;;;;;9.07;8.18;;;5.20;99.90;;;;;;4888805;29;20067;-71
2023/01/28 12:57:34;;;;;;;6.85;5.85;;;5.30;99.90;;;;;;4873587;29;20036;-71
2023/01/28 13:00:24;;;;;;;8.13;7.28;;;5.40;99.90;;;;;;4894753;29;20047;-70
2023/01/28 13:03:07;;;;;;;7.65;6.85;;;5.60;99.90;;;;;;4885890;29;20562;-72
2023/01/28 13:05:40;;;;;;;8.25;6.70;;;5.70;99.90;;;;;;4899235;29;20048;-71
2023/01/28 13:08:16;;;;;;;8.15;7.20;;;5.80;99.90;;;;;;4912034;29;20044;-70
2023/01/28 13:10:45;;;;;;;8.52;7.68;;;5.80;99.90;;;;;;4910622;29;20039;-71
2023/01/28 13:13:19;;;;;;;8.90;6.68;;;5.80;99.90;;;;;;4897072;29;20039;-70
2023/01/28 13:15:46;;;;;;;8.48;6.60;;;5.70;99.90;;;;;;4886837;29;20513;-71
2023/01/28 13:18:38;;;;;;;7.60;6.82;;;5.80;99.90;;;;;;4885880;29;20042;-73
2023/01/28 13:21:06;;;;;;;7.07;6.07;;;5.80;99.90;;;;;;4909877;29;20031;-70
2023/01/28 13:23:48;;;;;;;6.97;6.15;;;5.90;99.90;;;;;;4904626;29;20048;-70
2023/01/28 13:26:20;;;;;;;9.35;7.57;;;5.90;99.90;;;;;;4901554;29;20032;-71
2023/01/28 13:28:48;;;;;;;9.48;7.60;;;5.80;99.90;;;;;;4871931;29;20051;-71
2023/01/28 13:31:18;;;;;;;10.15;8.60;;;5.50;99.90;;;;;;4910539;29;20492;-71
2023/01/28 13:34:07;;;;;;;7.72;6.93;;;5.30;99.90;;;;;;4896540;29;20035;-70
2023/01/28 13:36:44;;;;;;;8.50;7.30;;;5.00;99.90;;;;;;4885145;29;20071;-71
2023/01/28 13:39:13;;;;;;;8.60;7.63;;;4.80;99.90;;;;;;4892588;29;20404;-71
2023/01/28 13:42:05;;;;;;;7.68;6.10;;;4.60;99.90;;;;;;4907534;29;20054;-71
2023/01/28 13:44:34;;;;;;;7.82;6.82;;;4.50;99.90;;;;;;4901100;29;20051;-72
2023/01/28 13:47:07;;;;;;;8.82;7.18;;;4.50;99.90;;;;;;4898062;29;20036;-71
2023/01/28 13:49:36;;;;;;;;;;;4.40;99.90;;;;;;4901041;29;20040;-71
2023/01/28 13:52:35;;;;;;;10.52;8.07;;;4.40;99.90;;;;;;4892120;29;20422;-71